createdAt,value
2022-10-18T00:00:33.106Z,10.09
2022-10-18T00:01:56.318Z,10.07
2022-10-18T00:03:00.375Z,10.08
2022-10-18T00:04:03.789Z,10.09
2022-10-18T00:05:07.431Z,10.08
2022-10-18T00:06:11.237Z,10.08
2022-10-18T00:07:14.367Z,10.08
2022-10-18T00:08:18.844Z,10.07
2022-10-18T00:09:22.357Z,10.06
2022-10-18T00:10:26.753Z,10.03
2022-10-18T00:11:30.033Z,10.02
2022-10-18T00:12:35.966Z,10.00
2022-10-18T00:13:39.598Z,9.96
2022-10-18T00:14:42.853Z,9.92
2022-10-18T00:15:57.924Z,9.86
2022-10-18T00:17:01.052Z,9.83
2022-10-18T00:18:04.440Z,9.80
2022-10-18T00:19:07.758Z,9.78
2022-10-18T00:20:11.870Z,9.76
2022-10-18T00:21:21.187Z,9.72
2022-10-18T00:22:25.552Z,9.69
2022-10-18T00:23:33.350Z,9.67
2022-10-18T00:24:36.352Z,9.65
2022-10-18T00:25:39.445Z,9.62
2022-10-18T00:26:45.515Z,9.60
2022-10-18T00:27:48.818Z,9.55
2022-10-18T00:28:54.459Z,9.52
2022-10-18T00:29:57.572Z,9.50
2022-10-18T00:31:22.768Z,9.49
2022-10-18T00:32:26.399Z,9.48
2022-10-18T00:33:29.725Z,9.47
2022-10-18T00:34:32.866Z,9.48
2022-10-18T00:35:35.947Z,9.49
2022-10-18T00:36:39.150Z,9.49
2022-10-18T00:37:42.468Z,9.49
2022-10-18T00:38:46.613Z,9.49
2022-10-18T00:39:50.330Z,9.49
2022-10-18T00:40:53.789Z,9.49
2022-10-18T00:41:57.198Z,9.48
2022-10-18T00:43:00.348Z,9.49
2022-10-18T00:44:05.716Z,9.50
2022-10-18T00:45:23.263Z,9.50
2022-10-18T00:46:32.292Z,9.49
2022-10-18T00:47:36.253Z,9.50
2022-10-18T00:48:39.344Z,9.48
2022-10-18T00:49:49.259Z,9.52
2022-10-18T00:50:53.311Z,9.52
2022-10-18T00:51:58.589Z,9.56
2022-10-18T00:53:07.802Z,9.57
2022-10-18T00:54:12.584Z,9.63
2022-10-18T00:55:15.934Z,9.65
2022-10-18T00:56:19.943Z,9.66
2022-10-18T00:57:24.266Z,9.66
2022-10-18T00:58:27.907Z,9.69
2022-10-18T00:59:31.222Z,9.72
2022-10-18T01:00:38.904Z,9.73
2022-10-18T01:01:42.231Z,9.71
2022-10-18T01:02:47.054Z,9.68
2022-10-18T01:03:51.504Z,9.64
2022-10-18T01:04:54.828Z,9.62
2022-10-18T01:05:58.274Z,9.60
2022-10-18T01:07:04.446Z,9.53
2022-10-18T01:08:28.441Z,9.55
2022-10-18T01:09:46.834Z,9.51
2022-10-18T01:11:14.479Z,9.48
2022-10-18T01:12:44.943Z,9.46
2022-10-18T01:14:03.828Z,9.43
2022-10-18T01:15:20.378Z,9.42
2022-10-18T01:16:30.369Z,9.42
2022-10-18T01:18:12.591Z,9.42
2022-10-18T01:19:31.881Z,9.41
2022-10-18T01:21:03.616Z,9.42
2022-10-18T01:22:30.760Z,9.43
2022-10-18T01:23:55.286Z,9.43
2022-10-18T01:25:15.221Z,9.44
2022-10-18T01:26:48.174Z,9.45
2022-10-18T01:27:55.826Z,9.42
2022-10-18T01:29:39.663Z,9.42
2022-10-18T01:31:05.257Z,9.38
2022-10-18T01:32:15.745Z,9.34
2022-10-18T01:33:34.367Z,9.34
2022-10-18T01:34:41.570Z,9.31
2022-10-18T01:35:53.343Z,9.29
2022-10-18T01:36:57.836Z,9.28
2022-10-18T01:38:06.337Z,9.25
2022-10-18T01:39:15.672Z,9.23
2022-10-18T01:40:22.497Z,9.21
2022-10-18T01:41:28.555Z,9.20
2022-10-18T01:42:32.371Z,9.17
2022-10-18T01:43:36.921Z,9.15
2022-10-18T01:44:41.866Z,9.12
2022-10-18T01:45:45.543Z,9.10
2022-10-18T01:46:54.442Z,9.07
2022-10-18T01:47:58.299Z,9.05
2022-10-18T01:49:01.448Z,9.03
2022-10-18T01:50:06.818Z,8.99
2022-10-18T01:51:10.638Z,8.95
2022-10-18T01:52:15.715Z,8.93
2022-10-18T01:53:28.570Z,8.90
2022-10-18T01:54:37.440Z,8.87
2022-10-18T01:55:51.385Z,8.85
2022-10-18T01:57:03.577Z,8.83
2022-10-18T01:58:20.186Z,8.84
2022-10-18T01:59:40.159Z,8.84
2022-10-18T02:00:44.562Z,8.83
2022-10-18T02:02:18.139Z,8.83
2022-10-18T02:03:27.805Z,8.81
2022-10-18T02:04:45.885Z,8.80
2022-10-18T02:05:58.121Z,8.82
2022-10-18T02:07:07.598Z,8.81
2022-10-18T02:08:30.116Z,8.81
2022-10-18T02:09:45.996Z,8.80
2022-10-18T02:10:54.768Z,8.80
2022-10-18T02:12:00.706Z,8.80
2022-10-18T02:13:03.961Z,8.81
2022-10-18T02:14:13.494Z,8.82
2022-10-18T02:15:22.420Z,8.80
2022-10-18T02:16:35.046Z,8.81
2022-10-18T02:17:40.302Z,8.80
2022-10-18T02:18:55.339Z,8.81
2022-10-18T02:20:01.731Z,8.79
2022-10-18T02:21:08.617Z,8.78
2022-10-18T02:22:13.079Z,8.76
2022-10-18T02:23:21.534Z,8.72
2022-10-18T02:24:33.635Z,8.58
2022-10-18T02:25:39.089Z,8.41
2022-10-18T02:26:42.388Z,8.32
2022-10-18T02:27:45.630Z,8.31
2022-10-18T02:28:48.981Z,8.27
2022-10-18T02:29:52.915Z,8.23
2022-10-18T02:31:11.276Z,8.21
2022-10-18T02:32:20.659Z,8.18
2022-10-18T02:33:35.101Z,8.16
2022-10-18T02:34:47.045Z,8.16
2022-10-18T02:35:55.714Z,8.14
2022-10-18T02:37:01.196Z,8.13
2022-10-18T02:38:07.433Z,8.13
2022-10-18T02:39:17.978Z,8.12
2022-10-18T02:40:21.603Z,8.14
2022-10-18T02:41:27.053Z,8.14
2022-10-18T02:42:37.941Z,8.13
2022-10-18T02:43:41.103Z,8.08
2022-10-18T02:44:44.769Z,8.03
2022-10-18T02:45:48.518Z,8.00
2022-10-18T02:46:51.715Z,8.01
2022-10-18T02:47:54.834Z,8.02
2022-10-18T02:48:58.126Z,8.02
2022-10-18T02:50:01.284Z,8.02
2022-10-18T02:51:04.576Z,8.01
2022-10-18T02:52:07.778Z,7.99
2022-10-18T02:53:10.903Z,7.98
2022-10-18T02:54:14.098Z,7.96
2022-10-18T02:55:17.830Z,7.95
2022-10-18T02:56:21.084Z,7.95
2022-10-18T02:57:24.388Z,7.94
2022-10-18T02:58:27.503Z,7.93
2022-10-18T02:59:30.652Z,7.93
2022-10-18T03:00:33.856Z,7.91
2022-10-18T03:01:40.080Z,7.92
2022-10-18T03:02:43.513Z,7.92
2022-10-18T03:03:46.902Z,7.92
2022-10-18T03:04:49.995Z,7.93
2022-10-18T03:05:53.533Z,7.92
2022-10-18T03:06:56.798Z,7.92
2022-10-18T03:07:59.924Z,7.94
2022-10-18T03:09:05.079Z,7.95
2022-10-18T03:10:09.023Z,7.95
2022-10-18T03:11:12.305Z,7.96
2022-10-18T03:12:15.496Z,7.96
2022-10-18T03:13:18.821Z,7.95
2022-10-18T03:14:22.109Z,7.96
2022-10-18T03:15:25.227Z,7.95
2022-10-18T03:16:28.736Z,7.96
2022-10-18T03:17:31.994Z,7.95
2022-10-18T03:18:35.427Z,7.94
2022-10-18T03:19:38.937Z,7.95
2022-10-18T03:20:42.245Z,7.95
2022-10-18T03:21:48.782Z,7.95
2022-10-18T03:22:52.029Z,7.95
2022-10-18T03:23:56.231Z,7.95
2022-10-18T03:24:59.398Z,7.94
2022-10-18T03:26:03.213Z,7.93
2022-10-18T03:27:06.466Z,7.94
2022-10-18T03:28:09.713Z,7.93
2022-10-18T03:29:13.302Z,7.93
2022-10-18T03:30:16.721Z,7.93
2022-10-18T03:31:20.272Z,7.92
2022-10-18T03:32:23.519Z,7.92
2022-10-18T03:33:29.727Z,7.91
2022-10-18T03:34:32.863Z,7.90
2022-10-18T03:35:36.054Z,7.89
2022-10-18T03:36:41.312Z,7.88
2022-10-18T03:37:44.458Z,7.88
2022-10-18T03:38:47.873Z,7.86
2022-10-18T03:39:51.124Z,7.85
2022-10-18T03:40:54.356Z,7.86
2022-10-18T03:41:57.574Z,7.85
2022-10-18T03:43:00.816Z,7.84
2022-10-18T03:44:04.279Z,7.83
2022-10-18T03:45:09.549Z,7.81
2022-10-18T03:46:15.961Z,7.78
2022-10-18T03:47:21.988Z,7.74
2022-10-18T03:48:25.260Z,7.69
2022-10-18T03:49:29.431Z,7.66
2022-10-18T03:50:38.106Z,7.63
2022-10-18T03:51:49.794Z,7.60
2022-10-18T03:52:54.704Z,7.60
2022-10-18T03:53:57.981Z,7.58
2022-10-18T03:55:01.220Z,7.57
2022-10-18T03:56:04.614Z,7.57
2022-10-18T03:57:07.832Z,7.54
2022-10-18T03:58:11.135Z,7.54
2022-10-18T03:59:14.397Z,7.53
2022-10-18T04:00:17.816Z,7.52
2022-10-18T04:01:21.130Z,7.50
2022-10-18T04:02:24.459Z,7.52
2022-10-18T04:03:27.702Z,7.52
2022-10-18T04:04:30.854Z,7.52
2022-10-18T04:05:34.910Z,7.51
2022-10-18T04:06:38.033Z,7.51
2022-10-18T04:07:43.360Z,7.50
2022-10-18T04:08:46.516Z,7.48
2022-10-18T04:09:49.862Z,7.48
2022-10-18T04:10:53.113Z,7.48
2022-10-18T04:11:56.270Z,7.47
2022-10-18T04:12:59.414Z,7.46
2022-10-18T04:14:02.715Z,7.46
2022-10-18T04:15:06.600Z,7.45
2022-10-18T04:16:09.886Z,7.45
2022-10-18T04:17:13.022Z,7.45
2022-10-18T04:18:16.318Z,7.46
2022-10-18T04:19:19.909Z,7.42
2022-10-18T04:20:25.076Z,7.48
2022-10-18T04:21:28.579Z,7.49
2022-10-18T04:22:31.819Z,7.50
2022-10-18T04:23:37.938Z,7.50
2022-10-18T04:24:42.177Z,7.51
2022-10-18T04:25:45.407Z,7.52
2022-10-18T04:26:48.694Z,7.52
2022-10-18T04:27:52.067Z,7.55
2022-10-18T04:28:55.281Z,7.56
2022-10-18T04:29:58.679Z,7.58
2022-10-18T04:31:01.918Z,7.60
2022-10-18T04:32:05.296Z,7.60
2022-10-18T04:33:08.459Z,7.62
2022-10-18T04:34:11.622Z,7.62
2022-10-18T04:35:14.874Z,7.62
2022-10-18T04:36:21.215Z,7.63
2022-10-18T04:37:24.344Z,7.63
2022-10-18T04:38:27.809Z,7.63
2022-10-18T04:39:31.096Z,7.64
2022-10-18T04:40:34.215Z,7.64
2022-10-18T04:41:37.470Z,7.66
2022-10-18T04:42:40.660Z,7.67
2022-10-18T04:44:47.435Z,7.68
2022-10-18T04:45:51.439Z,7.70
2022-10-18T04:46:54.641Z,7.70
2022-10-18T04:47:57.839Z,7.70
2022-10-18T04:49:01.754Z,7.72
2022-10-18T04:50:06.109Z,7.73
2022-10-18T04:51:09.292Z,7.72
2022-10-18T04:52:12.685Z,7.72
2022-10-18T04:53:17.704Z,7.72
2022-10-18T04:54:22.799Z,7.72
2022-10-18T04:55:28.528Z,7.72
2022-10-18T04:56:32.019Z,7.71
2022-10-18T04:57:35.240Z,7.71
2022-10-18T04:58:41.496Z,7.72
2022-10-18T04:59:44.759Z,7.72
2022-10-18T05:00:48.002Z,7.72
2022-10-18T05:01:51.242Z,7.73
2022-10-18T05:02:58.413Z,7.73
2022-10-18T05:04:03.271Z,7.74
2022-10-18T05:05:09.234Z,7.74
2022-10-18T05:06:15.011Z,7.74
2022-10-18T05:07:21.268Z,7.75
2022-10-18T05:08:24.678Z,7.74
2022-10-18T05:09:27.925Z,7.74
2022-10-18T05:10:31.258Z,7.74
2022-10-18T05:11:37.436Z,7.74
2022-10-18T05:12:40.559Z,7.73
2022-10-18T05:13:45.987Z,7.70
2022-10-18T05:14:51.820Z,7.67
2022-10-18T05:15:56.046Z,7.63
2022-10-18T05:16:59.420Z,7.61
2022-10-18T05:18:02.808Z,7.59
2022-10-18T05:19:06.158Z,7.57
2022-10-18T05:20:10.104Z,7.54
2022-10-18T05:21:13.534Z,7.55
2022-10-18T05:22:16.813Z,7.56
2022-10-18T05:23:20.084Z,7.56
2022-10-18T05:24:27.724Z,7.56
2022-10-18T05:25:31.208Z,7.56
2022-10-18T05:26:34.405Z,7.57
2022-10-18T05:27:37.627Z,7.58
2022-10-18T05:28:41.579Z,7.58
2022-10-18T05:29:44.813Z,7.57
2022-10-18T05:30:48.309Z,7.57
2022-10-18T05:31:51.740Z,7.56
2022-10-18T05:32:54.890Z,7.56
2022-10-18T05:33:58.097Z,7.56
2022-10-18T05:35:01.289Z,7.55
2022-10-18T05:36:04.713Z,7.56
2022-10-18T05:37:08.127Z,7.57
2022-10-18T05:38:12.737Z,7.56
2022-10-18T05:39:16.012Z,7.56
2022-10-18T05:40:19.166Z,7.56
2022-10-18T05:41:22.818Z,7.56
2022-10-18T05:42:25.972Z,7.56
2022-10-18T05:43:31.501Z,7.56
2022-10-18T05:44:34.900Z,7.58
2022-10-18T05:45:38.537Z,7.60
2022-10-18T05:46:41.719Z,7.61
2022-10-18T05:47:44.854Z,7.63
2022-10-18T05:48:52.138Z,7.64
2022-10-18T05:49:55.429Z,7.66
2022-10-18T05:51:00.074Z,7.68
2022-10-18T05:52:03.322Z,7.70
2022-10-18T05:53:11.945Z,7.72
2022-10-18T05:54:19.863Z,7.75
2022-10-18T05:55:23.834Z,7.77
2022-10-18T05:56:27.177Z,7.79
2022-10-18T05:57:31.069Z,7.82
2022-10-18T05:58:34.666Z,7.84
2022-10-18T05:59:37.913Z,7.88
2022-10-18T06:00:41.322Z,7.89
2022-10-18T06:01:44.849Z,7.91
2022-10-18T06:02:48.011Z,7.95
2022-10-18T06:03:51.815Z,7.95
2022-10-18T06:04:55.145Z,8.00
2022-10-18T06:06:07.816Z,8.02
2022-10-18T06:07:11.807Z,8.06
2022-10-18T06:08:14.994Z,8.09
2022-10-18T06:09:18.456Z,8.11
2022-10-18T06:10:21.924Z,8.14
2022-10-18T06:11:25.262Z,8.16
2022-10-18T06:12:28.529Z,8.20
2022-10-18T06:13:32.529Z,8.23
2022-10-18T06:14:38.868Z,8.26
2022-10-18T06:15:41.980Z,8.28
2022-10-18T06:16:45.274Z,8.31
2022-10-18T06:17:48.631Z,8.33
2022-10-18T06:18:54.246Z,8.38
2022-10-18T06:19:57.357Z,8.40
2022-10-18T06:21:00.434Z,8.42
2022-10-18T06:22:03.774Z,8.45
2022-10-18T06:23:07.111Z,8.47
2022-10-18T06:24:10.423Z,8.51
2022-10-18T06:25:13.498Z,8.52
2022-10-18T06:26:17.030Z,8.54
2022-10-18T06:27:20.169Z,8.56
2022-10-18T06:28:23.549Z,8.59
2022-10-18T06:29:29.424Z,8.60
2022-10-18T06:30:34.333Z,8.64
2022-10-18T06:31:37.575Z,8.68
2022-10-18T06:32:40.769Z,8.70
2022-10-18T06:33:44.109Z,8.70
2022-10-18T06:34:47.552Z,8.73
2022-10-18T06:36:11.028Z,8.76
2022-10-18T06:37:14.111Z,8.79
2022-10-18T06:38:17.294Z,8.81
2022-10-18T06:39:20.683Z,8.84
2022-10-18T06:40:24.269Z,8.88
2022-10-18T06:41:27.784Z,8.91
2022-10-18T06:42:36.175Z,8.95
2022-10-18T06:43:39.675Z,8.97
2022-10-18T06:44:52.960Z,9.01
2022-10-18T06:45:56.469Z,9.05
2022-10-18T06:47:02.618Z,9.08
2022-10-18T06:48:06.155Z,9.13
2022-10-18T06:49:09.481Z,9.18
2022-10-18T06:50:13.265Z,9.22
2022-10-18T06:51:16.482Z,9.29
2022-10-18T06:52:22.815Z,9.35
2022-10-18T06:53:27.243Z,9.41
2022-10-18T06:54:30.389Z,9.49
2022-10-18T06:55:33.691Z,9.55
2022-10-18T06:56:37.709Z,9.59
2022-10-18T06:57:41.101Z,9.66
2022-10-18T06:58:44.423Z,9.73
2022-10-18T06:59:47.548Z,9.79
2022-10-18T07:00:53.591Z,9.85
2022-10-18T07:01:56.854Z,9.83
2022-10-18T07:03:00.217Z,9.99
2022-10-18T07:04:03.726Z,10.06
2022-10-18T07:05:11.613Z,10.12
2022-10-18T07:06:17.496Z,10.20
2022-10-18T07:07:21.323Z,10.39
2022-10-18T07:08:24.548Z,10.78
2022-10-18T07:09:27.944Z,11.24
2022-10-18T07:10:31.036Z,11.66
2022-10-18T07:11:34.209Z,12.04
2022-10-18T07:12:39.829Z,12.41
2022-10-18T07:13:43.283Z,12.78
2022-10-18T07:14:46.674Z,13.14
2022-10-18T07:15:49.969Z,13.48
2022-10-18T07:16:53.155Z,13.82
2022-10-18T07:17:57.142Z,14.14
2022-10-18T07:19:00.394Z,14.44
2022-10-18T07:20:04.718Z,14.74
2022-10-18T07:21:10.589Z,15.03
2022-10-18T07:22:13.839Z,15.35
2022-10-18T07:23:17.138Z,15.64
2022-10-18T07:24:20.728Z,15.90
2022-10-18T07:25:25.930Z,16.15
2022-10-18T07:26:33.942Z,16.42
2022-10-18T07:27:42.506Z,16.65
2022-10-18T07:28:48.486Z,16.95
2022-10-18T07:29:51.751Z,17.25
2022-10-18T07:30:55.093Z,17.52
2022-10-18T07:31:58.378Z,17.78
2022-10-18T07:33:01.946Z,18.08
2022-10-18T07:34:06.648Z,18.38
2022-10-18T07:36:18.315Z,18.88
2022-10-18T07:37:24.409Z,19.17
2022-10-18T07:38:30.005Z,19.52
2022-10-18T07:39:33.241Z,19.76
2022-10-18T07:40:39.013Z,19.95
2022-10-18T07:41:42.310Z,20.19
2022-10-18T07:42:48.007Z,20.48
2022-10-18T07:43:52.820Z,20.73
2022-10-18T07:44:56.339Z,20.95
2022-10-18T07:46:02.315Z,21.13
2022-10-18T07:47:05.979Z,21.29
2022-10-18T07:48:09.195Z,21.46
2022-10-18T07:49:12.308Z,21.61
2022-10-18T07:50:15.566Z,21.79
2022-10-18T07:51:20.623Z,22.00
2022-10-18T07:52:23.765Z,22.01
2022-10-18T07:53:27.978Z,21.96
2022-10-18T07:54:31.519Z,21.97
2022-10-18T07:55:37.349Z,22.07
2022-10-18T07:56:43.407Z,21.90
2022-10-18T07:57:49.472Z,21.87
2022-10-18T07:58:56.023Z,21.90
2022-10-18T07:59:59.348Z,22.02
2022-10-18T08:01:07.579Z,22.16
2022-10-18T08:02:10.874Z,22.32
2022-10-18T08:03:14.093Z,22.49
2022-10-18T08:04:17.550Z,22.69
2022-10-18T08:05:20.877Z,22.84
2022-10-18T08:06:25.141Z,22.99
2022-10-18T08:07:28.361Z,23.11
2022-10-18T08:08:31.835Z,23.27
2022-10-18T08:09:35.036Z,23.41
2022-10-18T08:10:38.314Z,23.57
2022-10-18T08:11:41.509Z,23.74
2022-10-18T08:12:45.044Z,23.86
2022-10-18T08:13:48.917Z,23.97
2022-10-18T08:14:54.612Z,24.11
2022-10-18T08:16:02.723Z,24.29
2022-10-18T08:17:06.069Z,24.47
2022-10-18T08:18:09.661Z,24.62
2022-10-18T08:19:12.855Z,24.76
2022-10-18T08:20:29.761Z,24.85
2022-10-18T08:21:34.491Z,25.03
2022-10-18T08:22:37.686Z,25.09
2022-10-18T08:23:41.302Z,25.10
2022-10-18T08:24:44.540Z,25.18
2022-10-18T08:25:47.865Z,25.38
2022-10-18T08:26:51.018Z,25.64
2022-10-18T08:27:54.589Z,25.62
2022-10-18T08:29:10.678Z,25.65
2022-10-18T08:30:21.084Z,25.69
2022-10-18T08:31:24.287Z,25.77
2022-10-18T08:32:28.710Z,25.51
2022-10-18T08:33:32.859Z,25.60
2022-10-18T08:34:36.347Z,25.62
2022-10-18T08:35:39.616Z,25.78
2022-10-18T08:36:42.802Z,25.90
2022-10-18T08:37:46.507Z,25.95
2022-10-18T08:38:49.717Z,26.11
2022-10-18T08:39:52.831Z,26.01
2022-10-18T08:40:56.266Z,25.97
2022-10-18T08:41:59.694Z,26.02
2022-10-18T08:43:18.128Z,25.98
2022-10-18T08:44:30.602Z,25.97
2022-10-18T08:45:42.248Z,25.97
2022-10-18T08:46:48.688Z,26.01
2022-10-18T08:47:54.116Z,26.09
2022-10-18T08:48:57.434Z,26.09
2022-10-18T08:50:06.207Z,26.03
2022-10-18T08:51:22.335Z,26.09
2022-10-18T08:52:45.222Z,26.15
2022-10-18T08:54:01.582Z,26.21
2022-10-18T08:55:27.039Z,26.30
2022-10-18T08:56:31.398Z,26.25
2022-10-18T08:57:34.964Z,26.23
2022-10-18T08:58:39.500Z,26.26
2022-10-18T08:59:42.839Z,26.21
2022-10-18T09:01:24.905Z,26.12
2022-10-18T09:02:35.301Z,26.10
2022-10-18T09:03:47.965Z,26.19
2022-10-18T09:05:09.661Z,26.20
2022-10-18T09:06:25.961Z,26.34
2022-10-18T09:07:52.728Z,26.36
2022-10-18T09:09:20.587Z,26.28
2022-10-18T09:11:08.385Z,26.27
2022-10-18T09:13:03.640Z,26.50
2022-10-18T09:14:18.746Z,26.54
2022-10-18T09:15:59.774Z,26.38
2022-10-18T09:17:17.708Z,26.33
2022-10-18T09:18:38.992Z,26.26
2022-10-18T09:20:07.632Z,26.15
2022-10-18T09:21:32.339Z,26.21
2022-10-18T09:22:48.265Z,26.29
2022-10-18T09:24:05.637Z,26.56
2022-10-18T09:25:23.411Z,26.53
2022-10-18T09:26:26.987Z,26.53
2022-10-18T09:27:40.408Z,26.59
2022-10-18T09:28:50.103Z,26.57
2022-10-18T09:30:10.350Z,26.60
2022-10-18T09:31:30.330Z,26.40
2022-10-18T09:32:46.339Z,26.35
2022-10-18T09:34:08.941Z,26.42
2022-10-18T09:35:20.390Z,26.53
2022-10-18T09:36:27.735Z,26.58
2022-10-18T09:37:34.454Z,26.54
2022-10-18T09:38:46.922Z,26.55
2022-10-18T09:39:55.004Z,26.61
2022-10-18T09:41:08.854Z,26.76
2022-10-18T09:42:21.825Z,26.76
2022-10-18T09:43:32.382Z,26.77
2022-10-18T09:44:48.992Z,26.74
2022-10-18T09:45:54.638Z,26.82
2022-10-18T09:47:25.011Z,26.96
2022-10-18T09:48:42.850Z,26.95
2022-10-18T09:49:49.755Z,27.01
2022-10-18T09:51:06.385Z,27.13
2022-10-18T09:52:17.170Z,27.32
2022-10-18T09:53:35.330Z,27.28
2022-10-18T09:54:45.231Z,27.14
2022-10-18T09:56:06.388Z,27.17
2022-10-18T09:57:33.771Z,27.30
2022-10-18T09:58:49.031Z,27.37
2022-10-18T09:59:52.235Z,27.42
2022-10-18T10:00:56.296Z,27.39
2022-10-18T10:01:59.559Z,27.40
2022-10-18T10:03:11.376Z,27.44
2022-10-18T10:04:15.597Z,27.64
2022-10-18T10:05:20.285Z,27.72
2022-10-18T10:06:31.134Z,27.83
2022-10-18T10:07:41.559Z,27.92
2022-10-18T10:08:49.041Z,27.91
2022-10-18T10:10:13.637Z,27.97
2022-10-18T10:11:36.197Z,27.88
2022-10-18T10:12:40.503Z,27.73
2022-10-18T10:13:43.635Z,27.79
2022-10-18T10:14:46.811Z,27.72
2022-10-18T10:15:56.130Z,27.81
2022-10-18T10:17:22.193Z,27.82
2022-10-18T10:18:33.266Z,27.62
2022-10-18T10:20:02.179Z,27.52
2022-10-18T10:21:13.162Z,27.57
2022-10-18T10:22:16.158Z,27.54
2022-10-18T10:23:28.342Z,27.52
2022-10-18T10:24:44.206Z,27.70
2022-10-18T10:25:56.083Z,27.88
2022-10-18T10:27:04.700Z,27.78
2022-10-18T10:28:16.010Z,27.73
2022-10-18T10:29:46.875Z,27.76
2022-10-18T10:30:50.681Z,27.91
2022-10-18T10:32:14.422Z,28.08
2022-10-18T10:33:39.136Z,28.15
2022-10-18T10:34:45.358Z,28.28
2022-10-18T10:35:59.039Z,28.41
2022-10-18T10:37:02.940Z,28.51
2022-10-18T10:38:06.734Z,28.67
2022-10-18T10:39:19.460Z,28.87
2022-10-18T10:40:37.425Z,28.91
2022-10-18T10:41:41.591Z,29.01
2022-10-18T10:43:12.959Z,29.15
2022-10-18T10:44:31.101Z,29.30
2022-10-18T10:45:41.801Z,29.29
2022-10-18T10:46:46.069Z,29.33
2022-10-18T10:47:49.975Z,29.34
2022-10-18T10:49:21.626Z,29.43
2022-10-18T10:50:27.711Z,29.48
2022-10-18T10:51:34.188Z,29.53
2022-10-18T10:52:40.504Z,29.62
2022-10-18T10:54:05.795Z,29.74
2022-10-18T10:55:34.880Z,29.65
2022-10-18T10:57:12.963Z,29.67
2022-10-18T10:58:18.504Z,29.81
2022-10-18T10:59:25.235Z,30.02
2022-10-18T11:00:34.326Z,29.97
2022-10-18T11:01:38.739Z,29.87
2022-10-18T11:02:46.844Z,29.86
2022-10-18T11:04:02.381Z,29.90
2022-10-18T11:05:27.294Z,29.99
2022-10-18T11:06:44.090Z,30.07
2022-10-18T11:07:48.361Z,29.92
2022-10-18T11:08:54.412Z,30.03
2022-10-18T11:09:58.617Z,29.91
2022-10-18T11:11:07.970Z,29.87
2022-10-18T11:12:37.858Z,29.77
2022-10-18T11:14:07.359Z,29.42
2022-10-18T11:15:21.589Z,29.40
2022-10-18T11:16:41.461Z,29.49
2022-10-18T11:18:26.615Z,29.63
2022-10-18T11:19:34.514Z,29.66
2022-10-18T11:21:08.861Z,29.65
2022-10-18T11:22:22.369Z,29.58
2022-10-18T11:23:32.590Z,29.47
2022-10-18T11:24:37.303Z,29.39
2022-10-18T11:25:50.723Z,29.37
2022-10-18T11:27:06.446Z,29.38
2022-10-18T11:28:36.216Z,29.48
2022-10-18T11:29:52.660Z,29.62
2022-10-18T11:31:09.619Z,29.68
2022-10-18T11:32:21.379Z,29.72
2022-10-18T11:34:10.323Z,29.74
2022-10-18T11:35:40.716Z,29.79
2022-10-18T11:37:30.322Z,29.92
2022-10-18T11:38:53.733Z,29.70
2022-10-18T11:40:02.763Z,29.41
2022-10-18T11:41:08.670Z,29.27
2022-10-18T11:42:14.951Z,29.20
2022-10-18T11:44:02.256Z,29.10
2022-10-18T11:45:25.165Z,29.10
2022-10-18T11:46:52.718Z,29.23
2022-10-18T11:48:04.839Z,29.21
2022-10-18T11:49:53.302Z,29.34
2022-10-18T11:50:56.412Z,29.08
2022-10-18T11:52:20.050Z,28.95
2022-10-18T11:53:38.125Z,28.91
2022-10-18T11:55:02.859Z,28.86
2022-10-18T11:56:25.528Z,28.92
2022-10-18T11:57:46.806Z,28.93
2022-10-18T11:59:31.744Z,28.87
2022-10-18T12:00:46.482Z,28.58
2022-10-18T12:02:14.656Z,28.54
2022-10-18T12:03:24.524Z,28.58
2022-10-18T12:04:41.811Z,28.61
2022-10-18T12:05:55.859Z,28.68
2022-10-18T12:06:59.422Z,28.80
2022-10-18T12:08:07.449Z,28.93
2022-10-18T12:09:22.504Z,29.04
2022-10-18T12:10:44.127Z,29.13
2022-10-18T12:12:02.386Z,29.15
2022-10-18T12:13:08.429Z,29.18
2022-10-18T12:14:42.804Z,29.10
2022-10-18T12:15:47.139Z,29.03
2022-10-18T12:17:02.801Z,28.92
2022-10-18T12:18:19.308Z,28.79
2022-10-18T12:19:27.155Z,28.77
2022-10-18T12:20:43.469Z,28.77
2022-10-18T12:21:47.783Z,28.66
2022-10-18T12:23:09.439Z,28.70
2022-10-18T12:24:18.544Z,28.90
2022-10-18T12:25:22.271Z,29.00
2022-10-18T12:26:29.665Z,28.97
2022-10-18T12:27:47.916Z,28.93
2022-10-18T12:28:54.067Z,28.96
2022-10-18T12:30:15.182Z,28.88
2022-10-18T12:31:52.849Z,28.94
2022-10-18T12:33:27.266Z,29.05
2022-10-18T12:34:49.129Z,28.90
2022-10-18T12:36:06.525Z,28.84
2022-10-18T12:37:40.766Z,28.77
2022-10-18T12:38:47.564Z,28.76
2022-10-18T12:40:10.175Z,28.84
2022-10-18T12:41:25.316Z,28.96
2022-10-18T12:42:32.781Z,29.05
2022-10-18T12:43:38.610Z,29.05
2022-10-18T12:44:41.788Z,29.03
2022-10-18T12:46:02.650Z,28.95
2022-10-18T12:47:06.737Z,28.61
2022-10-18T12:48:29.234Z,28.26
2022-10-18T12:49:43.998Z,28.03
2022-10-18T12:50:59.241Z,27.66
2022-10-18T12:52:19.614Z,27.44
2022-10-18T12:53:28.046Z,27.18
2022-10-18T12:55:00.498Z,26.86
2022-10-18T12:56:29.865Z,26.58
2022-10-18T12:57:51.604Z,26.29
2022-10-18T12:59:14.279Z,26.10
2022-10-18T13:00:30.119Z,25.98
2022-10-18T13:01:55.406Z,25.92
2022-10-18T13:03:14.273Z,25.76
2022-10-18T13:04:32.795Z,25.60
2022-10-18T13:05:54.320Z,25.45
2022-10-18T13:06:58.609Z,25.36
2022-10-18T13:08:27.606Z,25.28
2022-10-18T13:09:36.563Z,25.18
2022-10-18T13:10:40.081Z,25.17
2022-10-18T13:11:43.525Z,25.17
2022-10-18T13:13:38.663Z,25.16
2022-10-18T13:15:24.119Z,24.98
2022-10-18T13:16:54.394Z,24.78
2022-10-18T13:18:14.858Z,24.71
2022-10-18T13:19:21.515Z,24.60
2022-10-18T13:20:27.360Z,24.59
2022-10-18T13:21:53.015Z,24.65
2022-10-18T13:23:27.157Z,24.47
2022-10-18T13:24:45.592Z,24.37
2022-10-18T13:25:54.789Z,24.34
2022-10-18T13:27:31.563Z,24.35
2022-10-18T13:28:42.940Z,24.40
2022-10-18T13:30:10.759Z,24.34
2022-10-18T13:31:34.882Z,24.24
2022-10-18T13:33:06.621Z,24.19
2022-10-18T13:34:23.180Z,24.11
2022-10-18T13:35:49.100Z,24.10
2022-10-18T13:37:10.629Z,24.02
2022-10-18T13:38:49.489Z,23.97
2022-10-18T13:40:27.846Z,23.79
2022-10-18T13:41:55.079Z,23.53
2022-10-18T13:43:39.643Z,23.47
2022-10-18T13:44:44.908Z,23.25
2022-10-18T13:45:55.907Z,23.04
2022-10-18T13:46:59.055Z,22.97
2022-10-18T13:48:30.499Z,22.89
2022-10-18T13:49:40.917Z,22.76
2022-10-18T13:50:49.459Z,22.69
2022-10-18T13:52:29.367Z,22.59
2022-10-18T13:54:11.064Z,22.51
2022-10-18T13:55:29.661Z,22.51
2022-10-18T13:56:51.633Z,22.41
2022-10-18T13:58:16.635Z,22.39
2022-10-18T14:01:14.938Z,22.26
2022-10-18T14:02:50.563Z,22.18
2022-10-18T14:04:40.201Z,22.14
2022-10-18T14:05:57.204Z,22.09
2022-10-18T14:07:05.123Z,22.03
2022-10-18T14:08:16.475Z,22.06
2022-10-18T14:11:19.306Z,22.11
2022-10-18T14:12:33.251Z,22.11
2022-10-18T14:13:52.519Z,22.14
2022-10-18T14:15:20.864Z,22.18
2022-10-18T14:16:39.149Z,22.24
2022-10-18T14:17:50.795Z,22.33
2022-10-18T14:19:02.086Z,22.40
2022-10-18T14:20:14.967Z,22.45
2022-10-18T14:21:30.284Z,22.54
2022-10-18T14:23:15.866Z,22.51
2022-10-18T14:24:25.312Z,22.52
2022-10-18T14:25:36.815Z,22.54
2022-10-18T14:27:50.982Z,22.65
2022-10-18T14:29:16.339Z,22.72
2022-10-18T14:30:21.092Z,22.78
2022-10-18T14:31:24.355Z,22.81
2022-10-18T14:32:30.295Z,22.87
2022-10-18T14:33:38.549Z,22.93
2022-10-18T14:34:44.730Z,22.99
2022-10-18T14:36:11.638Z,23.05
2022-10-18T14:37:31.027Z,23.12
2022-10-18T14:38:36.983Z,23.09
2022-10-18T14:39:40.172Z,23.13
2022-10-18T14:40:43.619Z,23.06
2022-10-18T14:42:03.913Z,23.07
2022-10-18T14:43:19.071Z,23.01
2022-10-18T14:44:27.590Z,23.03
2022-10-18T14:45:30.718Z,23.08
2022-10-18T14:46:34.678Z,23.18
2022-10-18T14:47:38.091Z,23.11
2022-10-18T14:48:41.124Z,23.06
2022-10-18T14:49:47.439Z,23.02
2022-10-18T14:50:59.609Z,23.04
2022-10-18T14:52:02.869Z,23.04
2022-10-18T14:53:09.577Z,23.00
2022-10-18T14:54:31.896Z,22.94
2022-10-18T14:55:37.534Z,22.86
2022-10-18T14:56:42.852Z,22.79
2022-10-18T14:57:46.700Z,22.76
2022-10-18T14:58:50.969Z,22.69
2022-10-18T14:59:58.469Z,22.60
2022-10-18T15:01:02.261Z,22.54
2022-10-18T15:02:22.513Z,22.49
2022-10-18T15:03:28.457Z,22.39
2022-10-18T15:04:35.117Z,22.34
2022-10-18T15:05:51.406Z,22.30
2022-10-18T15:06:55.076Z,22.23
2022-10-18T15:08:00.223Z,22.18
2022-10-18T15:09:05.829Z,22.14
2022-10-18T15:10:16.566Z,22.10
2022-10-18T15:11:20.699Z,22.00
2022-10-18T15:12:24.621Z,21.94
2022-10-18T15:13:28.802Z,21.89
2022-10-18T15:14:32.318Z,21.87
2022-10-18T15:15:36.201Z,21.88
2022-10-18T15:16:41.552Z,21.81
2022-10-18T15:17:46.410Z,21.66
2022-10-18T15:19:19.336Z,21.56
2022-10-18T15:20:31.260Z,21.43